sensor_id;sensor_type;location;lat;lon;timestamp;pressure;altitude;pressure_sealevel;temperature;humidity
61337;BME280;47212;41.326;2.104;2023-12-20T00:02:48;101999.75;;;11.78;45.30
61337;BME280;47212;41.326;2.104;2023-12-20T00:07:51;101993.31;;;11.72;44.89
61337;BME280;47212;41.326;2.104;2023-12-20T00:12:57;101993.56;;;11.71;44.91
61337;BME280;47212;41.326;2.104;2023-12-20T00:17:59;101967.94;;;11.72;46.26
61337;BME280;47212;41.326;2.104;2023-12-20T00:23:05;101960.00;;;11.70;45.61
61337;BME280;47212;41.326;2.104;2023-12-20T00:28:10;101962.38;;;11.67;46.38
61337;BME280;47212;41.326;2.104;2023-12-20T00:33:16;101959.66;;;11.67;46.35
61337;BME280;47212;41.326;2.104;2023-12-20T00:38:21;101959.91;;;11.65;45.71
61337;BME280;47212;41.326;2.104;2023-12-20T00:43:25;101950.41;;;11.68;46.02
61337;BME280;47212;41.326;2.104;2023-12-20T00:48:29;101947.91;;;11.66;46.15
61337;BME280;47212;41.326;2.104;2023-12-20T00:53:37;101938.66;;;11.67;46.33
61337;BME280;47212;41.326;2.104;2023-12-20T00:58:39;101930.72;;;11.66;45.99
61337;BME280;47212;41.326;2.104;2023-12-20T01:03:45;101911.53;;;11.61;46.48
61337;BME280;47212;41.326;2.104;2023-12-20T01:08:53;101911.53;;;11.61;46.49
61337;BME280;47212;41.326;2.104;2023-12-20T01:14:00;101905.81;;;11.62;46.76
61337;BME280;47212;41.326;2.104;2023-12-20T01:19:06;101901.69;;;11.60;47.05
61337;BME280;47212;41.326;2.104;2023-12-20T01:24:08;101915.31;;;11.60;47.10
61337;BME280;47212;41.326;2.104;2023-12-20T01:29:14;101924.56;;;11.59;48.09
61337;BME280;47212;41.326;2.104;2023-12-20T01:34:28;101933.00;;;11.57;47.02
61337;BME280;47212;41.326;2.104;2023-12-20T01:39:33;101937.28;;;11.53;47.84
61337;BME280;47212;41.326;2.104;2023-12-20T01:44:56;101947.09;;;11.54;47.46
61337;BME280;47212;41.326;2.104;2023-12-20T01:50:14;101945.69;;;11.52;47.19
61337;BME280;47212;41.326;2.104;2023-12-20T01:55:22;101950.78;;;11.48;47.06
61337;BME280;47212;41.326;2.104;2023-12-20T02:05:35;101940.50;;;11.38;48.12
61337;BME280;47212;41.326;2.104;2023-12-20T02:10:44;101943.47;;;11.37;47.26
61337;BME280;47212;41.326;2.104;2023-12-20T02:15:47;101942.63;;;11.36;47.09
61337;BME280;47212;41.326;2.104;2023-12-20T02:20:55;101941.44;;;11.32;48.07
61337;BME280;47212;41.326;2.104;2023-12-20T02:26:07;101937.06;;;11.31;47.99
61337;BME280;47212;41.326;2.104;2023-12-20T02:31:12;101945.72;;;11.28;47.83
61337;BME280;47212;41.326;2.104;2023-12-20T02:36:26;101965.84;;;11.27;47.79
61337;BME280;47212;41.326;2.104;2023-12-20T02:41:28;101975.53;;;11.23;48.03
61337;BME280;47212;41.326;2.104;2023-12-20T02:46:32;101975.19;;;11.20;48.29
61337;BME280;47212;41.326;2.104;2023-12-20T02:51:44;101999.94;;;11.18;48.33
61337;BME280;47212;41.326;2.104;2023-12-20T02:57:00;101981.13;;;11.16;47.75
61337;BME280;47212;41.326;2.104;2023-12-20T03:02:07;101983.00;;;11.16;47.92
61337;BME280;47212;41.326;2.104;2023-12-20T03:07:22;101981.94;;;11.17;47.84
61337;BME280;47212;41.326;2.104;2023-12-20T03:12:28;101962.28;;;11.15;47.86
61337;BME280;47212;41.326;2.104;2023-12-20T03:17:30;101944.25;;;11.14;47.77
61337;BME280;47212;41.326;2.104;2023-12-20T03:22:35;101931.69;;;11.13;48.34
61337;BME280;47212;41.326;2.104;2023-12-20T03:27:39;101910.03;;;11.06;47.87
61337;BME280;47212;41.326;2.104;2023-12-20T03:32:55;101926.84;;;11.03;48.26
61337;BME280;47212;41.326;2.104;2023-12-20T03:38:12;101942.84;;;11.00;48.59
61337;BME280;47212;41.326;2.104;2023-12-20T03:43:19;101950.88;;;10.95;48.71
61337;BME280;47212;41.326;2.104;2023-12-20T03:48:36;101943.66;;;10.89;48.30
61337;BME280;47212;41.326;2.104;2023-12-20T03:53:43;101947.91;;;10.84;48.33
61337;BME280;47212;41.326;2.104;2023-12-20T03:58:52;101949.22;;;10.82;49.24
61337;BME280;47212;41.326;2.104;2023-12-20T04:03:55;101942.34;;;10.79;49.17
61337;BME280;47212;41.326;2.104;2023-12-20T04:08:57;101943.88;;;10.75;48.80
61337;BME280;47212;41.326;2.104;2023-12-20T04:14:00;101954.41;;;10.72;48.87
61337;BME280;47212;41.326;2.104;2023-12-20T04:19:04;101945.88;;;10.68;48.87
61337;BME280;47212;41.326;2.104;2023-12-20T04:24:06;101952.84;;;10.64;49.18
61337;BME280;47212;41.326;2.104;2023-12-20T04:29:09;101955.44;;;10.59;49.30
61337;BME280;47212;41.326;2.104;2023-12-20T04:34:17;101952.59;;;10.54;49.30
61337;BME280;47212;41.326;2.104;2023-12-20T04:39:19;101957.91;;;10.49;48.98
61337;BME280;47212;41.326;2.104;2023-12-20T04:44:30;101940.38;;;10.45;49.02
61337;BME280;47212;41.326;2.104;2023-12-20T04:49:32;101939.78;;;10.43;49.66
61337;BME280;47212;41.326;2.104;2023-12-20T04:54:34;101954.44;;;10.42;50.69
61337;BME280;47212;41.326;2.104;2023-12-20T04:59:36;101961.38;;;10.38;48.86
61337;BME280;47212;41.326;2.104;2023-12-20T05:04:39;101969.56;;;10.38;49.44
61337;BME280;47212;41.326;2.104;2023-12-20T05:09:47;101966.59;;;10.39;49.36
61337;BME280;47212;41.326;2.104;2023-12-20T05:14:50;101952.63;;;10.36;49.03
61337;BME280;47212;41.326;2.104;2023-12-20T05:19:53;101950.22;;;10.28;49.18
61337;BME280;47212;41.326;2.104;2023-12-20T05:24:56;101941.53;;;10.19;48.88
61337;BME280;47212;41.326;2.104;2023-12-20T05:29:59;101947.50;;;10.09;49.32
61337;BME280;47212;41.326;2.104;2023-12-20T05:35:01;101955.53;;;10.04;49.29
61337;BME280;47212;41.326;2.104;2023-12-20T05:40:06;101939.66;;;10.01;49.28
61337;BME280;47212;41.326;2.104;2023-12-20T05:45:09;101928.41;;;9.98;49.48
61337;BME280;47212;41.326;2.104;2023-12-20T05:50:11;101931.38;;;9.96;49.29
61337;BME280;47212;41.326;2.104;2023-12-20T05:55:16;101926.75;;;9.97;49.96
61337;BME280;47212;41.326;2.104;2023-12-20T06:00:20;101925.94;;;9.96;50.01
61337;BME280;47212;41.326;2.104;2023-12-20T06:05:45;101932.44;;;9.95;49.92
61337;BME280;47212;41.326;2.104;2023-12-20T06:10:52;101928.88;;;9.95;50.03
61337;BME280;47212;41.326;2.104;2023-12-20T06:16:07;101914.44;;;9.94;50.15
61337;BME280;47212;41.326;2.104;2023-12-20T06:21:12;101906.06;;;9.96;50.24
61337;BME280;47212;41.326;2.104;2023-12-20T06:26:21;101914.00;;;9.97;50.11
61337;BME280;47212;41.326;2.104;2023-12-20T06:31:27;101917.78;;;9.96;50.61
61337;BME280;47212;41.326;2.104;2023-12-20T06:36:37;101918.97;;;10.00;50.48
61337;BME280;47212;41.326;2.104;2023-12-20T06:41:42;101920.63;;;10.01;50.56
61337;BME280;47212;41.326;2.104;2023-12-20T06:46:53;101913.06;;;10.03;50.63
61337;BME280;47212;41.326;2.104;2023-12-20T06:51:55;101901.13;;;10.04;52.02
61337;BME280;47212;41.326;2.104;2023-12-20T06:57:13;101886.47;;;10.05;51.64
61337;BME280;47212;41.326;2.104;2023-12-20T07:02:22;101882.69;;;10.06;50.81
61337;BME280;47212;41.326;2.104;2023-12-20T07:07:26;101882.69;;;10.06;51.24
61337;BME280;47212;41.326;2.104;2023-12-20T07:12:28;101889.31;;;10.10;53.26
61337;BME280;47212;41.326;2.104;2023-12-20T07:17:32;101899.16;;;10.11;51.44
61337;BME280;47212;41.326;2.104;2023-12-20T07:22:47;101912.38;;;10.08;51.51
61337;BME280;47212;41.326;2.104;2023-12-20T07:27:57;101899.00;;;10.06;51.75
61337;BME280;47212;41.326;2.104;2023-12-20T07:33:03;101898.19;;;10.06;51.91
61337;BME280;47212;41.326;2.104;2023-12-20T07:38:15;101915.69;;;10.10;51.70
61337;BME280;47212;41.326;2.104;2023-12-20T07:43:24;101911.78;;;10.06;51.99
61337;BME280;47212;41.326;2.104;2023-12-20T07:48:27;101919.56;;;10.02;51.44
61337;BME280;47212;41.326;2.104;2023-12-20T07:53:38;101916.25;;;10.00;51.92
61337;BME280;47212;41.326;2.104;2023-12-20T07:58:53;101925.28;;;10.12;51.69
61337;BME280;47212;41.326;2.104;2023-12-20T08:04:01;101927.16;;;10.60;51.03
61337;BME280;47212;41.326;2.104;2023-12-20T08:09:06;101931.09;;;13.55;45.74
61337;BME280;47212;41.326;2.104;2023-12-20T08:14:22;101944.28;;;15.57;41.84
61337;BME280;47212;41.326;2.104;2023-12-20T08:19:36;101945.50;;;18.69;35.96
61337;BME280;47212;41.326;2.104;2023-12-20T08:24:39;101936.81;;;21.05;33.92
61337;BME280;47212;41.326;2.104;2023-12-20T08:29:44;101938.25;;;22.75;30.91
61337;BME280;47212;41.326;2.104;2023-12-20T08:34:59;101927.75;;;23.79;29.83
61337;BME280;47212;41.326;2.104;2023-12-20T08:40:06;101924.34;;;23.99;29.91
61337;BME280;47212;41.326;2.104;2023-12-20T08:45:10;101937.88;;;23.75;29.50
61337;BME280;47212;41.326;2.104;2023-12-20T08:50:24;101933.16;;;23.44;29.48
61337;BME280;47212;41.326;2.104;2023-12-20T08:55:42;101950.34;;;22.93;30.36
61337;BME280;47212;41.326;2.104;2023-12-20T09:01:00;101947.41;;;22.76;30.97
61337;BME280;47212;41.326;2.104;2023-12-20T09:06:11;101960.03;;;22.46;31.24
61337;BME280;47212;41.326;2.104;2023-12-20T09:11:16;101986.94;;;22.09;31.64
61337;BME280;47212;41.326;2.104;2023-12-20T09:16:29;101985.84;;;21.50;31.79
61337;BME280;47212;41.326;2.104;2023-12-20T09:21:44;101996.25;;;20.93;32.56
61337;BME280;47212;41.326;2.104;2023-12-20T09:26:57;101980.75;;;20.74;33.52
61337;BME280;47212;41.326;2.104;2023-12-20T09:31:59;101985.16;;;20.37;33.87
61337;BME280;47212;41.326;2.104;2023-12-20T09:37:02;102003.72;;;19.89;34.61
61337;BME280;47212;41.326;2.104;2023-12-20T09:42:06;102005.59;;;19.12;34.69
61337;BME280;47212;41.326;2.104;2023-12-20T09:47:08;101994.56;;;18.13;36.29
61337;BME280;47212;41.326;2.104;2023-12-20T09:52:11;102001.22;;;18.07;36.35
61337;BME280;47212;41.326;2.104;2023-12-20T09:57:15;101990.91;;;17.53;36.88
61337;BME280;47212;41.326;2.104;2023-12-20T10:02:18;101991.47;;;16.84;37.29
61337;BME280;47212;41.326;2.104;2023-12-20T10:07:27;101969.03;;;16.14;38.52
61337;BME280;47212;41.326;2.104;2023-12-20T10:12:29;101968.47;;;15.60;39.44
61337;BME280;47212;41.326;2.104;2023-12-20T10:17:32;101956.16;;;15.25;39.69
61337;BME280;47212;41.326;2.104;2023-12-20T10:22:38;101952.69;;;14.98;39.94
61337;BME280;47212;41.326;2.104;2023-12-20T10:27:41;101942.06;;;14.75;40.77
61337;BME280;47212;41.326;2.104;2023-12-20T10:32:43;101950.94;;;14.60;40.80
61337;BME280;47212;41.326;2.104;2023-12-20T10:37:45;101947.03;;;14.51;41.04
61337;BME280;47212;41.326;2.104;2023-12-20T10:42:50;101944.13;;;14.35;41.71
61337;BME280;47212;41.326;2.104;2023-12-20T10:47:53;101938.72;;;14.19;41.93
61337;BME280;47212;41.326;2.104;2023-12-20T10:53:02;101923.84;;;14.10;41.95
61337;BME280;47212;41.326;2.104;2023-12-20T10:58:08;101927.66;;;14.09;42.19
61337;BME280;47212;41.326;2.104;2023-12-20T11:03:12;101918.94;;;14.12;41.96
61337;BME280;47212;41.326;2.104;2023-12-20T11:08:38;101917.38;;;14.43;41.73
61337;BME280;47212;41.326;2.104;2023-12-20T11:14:02;101906.53;;;14.58;41.42
61337;BME280;47212;41.326;2.104;2023-12-20T11:19:06;101873.94;;;14.56;41.51
61337;BME280;47212;41.326;2.104;2023-12-20T11:24:11;101888.75;;;14.60;41.58
61337;BME280;47212;41.326;2.104;2023-12-20T11:29:31;101881.31;;;14.56;41.61
61337;BME280;47212;41.326;2.104;2023-12-20T11:34:36;101880.97;;;14.47;41.84
61337;BME280;47212;41.326;2.104;2023-12-20T11:39:40;101889.84;;;14.32;42.31
61337;BME280;47212;41.326;2.104;2023-12-20T11:44:42;101881.22;;;14.19;42.70
61337;BME280;47212;41.326;2.104;2023-12-20T11:49:47;101876.28;;;14.16;43.23
61337;BME280;47212;41.326;2.104;2023-12-20T11:54:50;101845.84;;;14.12;43.23
61337;BME280;47212;41.326;2.104;2023-12-20T11:59:53;101855.91;;;14.07;43.46
61337;BME280;47212;41.326;2.104;2023-12-20T12:04:55;101848.69;;;13.95;44.04
61337;BME280;47212;41.326;2.104;2023-12-20T12:09:59;101843.34;;;13.84;44.17
61337;BME280;47212;41.326;2.104;2023-12-20T12:15:09;101820.50;;;13.73;43.94
61337;BME280;47212;41.326;2.104;2023-12-20T12:20:19;101811.97;;;13.69;44.20
61337;BME280;47212;41.326;2.104;2023-12-20T12:25:22;101797.47;;;13.69;44.44
61337;BME280;47212;41.326;2.104;2023-12-20T12:30:27;101773.41;;;13.71;44.40
61337;BME280;47212;41.326;2.104;2023-12-20T12:35:40;101819.16;;;13.76;44.63
61337;BME280;47212;41.326;2.104;2023-12-20T12:40:44;101842.19;;;13.80;45.26
61337;BME280;47212;41.326;2.104;2023-12-20T12:45:47;101824.94;;;13.79;44.66
61337;BME280;47212;41.326;2.104;2023-12-20T12:50:50;101805.22;;;13.77;44.98
61337;BME280;47212;41.326;2.104;2023-12-20T12:55:57;101783.34;;;13.77;45.04
61337;BME280;47212;41.326;2.104;2023-12-20T13:01:00;101779.50;;;13.78;45.58
61337;BME280;47212;41.326;2.104;2023-12-20T13:06:03;101760.91;;;13.80;45.37
61337;BME280;47212;41.326;2.104;2023-12-20T13:11:06;101745.75;;;13.94;45.48
61337;BME280;47212;41.326;2.104;2023-12-20T13:16:09;101747.59;;;14.53;44.85
61337;BME280;47212;41.326;2.104;2023-12-20T13:21:12;101727.41;;;15.21;43.96
61337;BME280;47212;41.326;2.104;2023-12-20T13:26:20;101715.66;;;15.51;43.58
61337;BME280;47212;41.326;2.104;2023-12-20T13:31:22;101722.25;;;15.55;43.46
61337;BME280;47212;41.326;2.104;2023-12-20T13:36:25;101722.81;;;15.47;43.54
61337;BME280;47212;41.326;2.104;2023-12-20T13:41:27;101715.38;;;15.38;44.05
61337;BME280;47212;41.326;2.104;2023-12-20T13:46:30;101716.44;;;15.32;43.82
61337;BME280;47212;41.326;2.104;2023-12-20T13:51:33;101712.94;;;15.56;44.01
61337;BME280;47212;41.326;2.104;2023-12-20T13:56:39;101722.91;;;16.03;42.76
61337;BME280;47212;41.326;2.104;2023-12-20T14:01:57;101715.44;;;16.39;42.56
61337;BME280;47212;41.326;2.104;2023-12-20T14:07:05;101729.44;;;16.63;42.14
61337;BME280;47212;41.326;2.104;2023-12-20T14:12:22;101736.88;;;16.73;41.96
61337;BME280;47212;41.326;2.104;2023-12-20T14:17:38;101716.50;;;16.79;41.88
61337;BME280;47212;41.326;2.104;2023-12-20T14:22:41;101710.44;;;16.82;42.18
61337;BME280;47212;41.326;2.104;2023-12-20T14:28:07;101709.59;;;16.86;41.81
61337;BME280;47212;41.326;2.104;2023-12-20T14:33:21;101703.28;;;16.86;41.82
61337;BME280;47212;41.326;2.104;2023-12-20T14:38:35;101716.50;;;16.79;42.05
61337;BME280;47212;41.326;2.104;2023-12-20T14:43:48;101735.75;;;16.79;42.08
61337;BME280;47212;41.326;2.104;2023-12-20T14:48:57;101711.28;;;16.77;42.09
61337;BME280;47212;41.326;2.104;2023-12-20T14:54:24;101693.44;;;16.75;42.00
61337;BME280;47212;41.326;2.104;2023-12-20T14:59:29;101703.34;;;16.71;41.69
61337;BME280;47212;41.326;2.104;2023-12-20T15:04:41;101708.56;;;16.72;42.56
61337;BME280;47212;41.326;2.104;2023-12-20T15:09:46;101725.34;;;16.66;42.22
61337;BME280;47212;41.326;2.104;2023-12-20T15:14:55;101732.50;;;16.56;42.42
61337;BME280;47212;41.326;2.104;2023-12-20T15:20:08;101740.19;;;16.44;42.30
61337;BME280;47212;41.326;2.104;2023-12-20T15:25:45;101724.81;;;16.28;42.57
61337;BME280;47212;41.326;2.104;2023-12-20T15:30:56;101731.41;;;16.12;42.86
61337;BME280;47212;41.326;2.104;2023-12-20T15:36:00;101733.34;;;15.96;43.64
61337;BME280;47212;41.326;2.104;2023-12-20T15:41:03;101748.97;;;15.75;44.37
61337;BME280;47212;41.326;2.104;2023-12-20T15:46:21;101749.97;;;15.54;44.90
61337;BME280;47212;41.326;2.104;2023-12-20T15:51:41;101738.44;;;15.42;46.76
61337;BME280;47212;41.326;2.104;2023-12-20T15:56:57;101738.94;;;15.28;48.15
61337;BME280;47212;41.326;2.104;2023-12-20T16:02:09;101743.56;;;15.18;48.32
61337;BME280;47212;41.326;2.104;2023-12-20T16:07:11;101759.16;;;15.07;48.77
61337;BME280;47212;41.326;2.104;2023-12-20T16:12:15;101754.16;;;14.94;49.28
61337;BME280;47212;41.326;2.104;2023-12-20T16:17:18;101754.63;;;14.81;49.97
61337;BME280;47212;41.326;2.104;2023-12-20T16:22:22;101742.75;;;14.70;50.11
61337;BME280;47212;41.326;2.104;2023-12-20T16:27:24;101745.72;;;14.58;50.81
61337;BME280;47212;41.326;2.104;2023-12-20T16:32:36;101737.69;;;14.47;51.16
61337;BME280;47212;41.326;2.104;2023-12-20T16:37:38;101730.47;;;14.35;51.78
61337;BME280;47212;41.326;2.104;2023-12-20T16:42:52;101749.84;;;14.24;51.76
61337;BME280;47212;41.326;2.104;2023-12-20T16:48:00;101758.53;;;14.16;51.58
61337;BME280;47212;41.326;2.104;2023-12-20T16:53:17;101753.50;;;14.02;50.09
61337;BME280;47212;41.326;2.104;2023-12-20T16:58:28;101769.81;;;13.92;48.76
61337;BME280;47212;41.326;2.104;2023-12-20T17:03:44;101769.19;;;13.85;47.96
61337;BME280;47212;41.326;2.104;2023-12-20T17:08:46;101763.59;;;13.75;46.26
61337;BME280;47212;41.326;2.104;2023-12-20T17:13:48;101779.72;;;13.71;47.02
61337;BME280;47212;41.326;2.104;2023-12-20T17:18:50;101788.69;;;13.67;46.75
61337;BME280;47212;41.326;2.104;2023-12-20T17:23:53;101800.72;;;13.66;46.47
61337;BME280;47212;41.326;2.104;2023-12-20T17:28:59;101823.38;;;13.61;45.83
61337;BME280;47212;41.326;2.104;2023-12-20T17:34:10;101836.19;;;13.56;45.97
61337;BME280;47212;41.326;2.104;2023-12-20T17:39:15;101834.47;;;13.50;46.05
61337;BME280;47212;41.326;2.104;2023-12-20T17:44:21;101837.72;;;13.47;45.19
61337;BME280;47212;41.326;2.104;2023-12-20T17:49:25;101834.41;;;13.45;45.37
61337;BME280;47212;41.326;2.104;2023-12-20T17:54:31;101836.06;;;13.46;44.60
61337;BME280;47212;41.326;2.104;2023-12-20T17:59:37;101845.34;;;13.45;45.04
61337;BME280;47212;41.326;2.104;2023-12-20T18:04:47;101849.66;;;13.41;44.27
61337;BME280;47212;41.326;2.104;2023-12-20T18:09:50;101847.44;;;13.37;45.16
61337;BME280;47212;41.326;2.104;2023-12-20T18:14:53;101850.13;;;13.32;44.94
61337;BME280;47212;41.326;2.104;2023-12-20T18:20:02;101851.69;;;13.28;44.78
61337;BME280;47212;41.326;2.104;2023-12-20T18:25:07;101861.50;;;13.24;44.88
61337;BME280;47212;41.326;2.104;2023-12-20T18:30:10;101871.28;;;13.20;45.35
61337;BME280;47212;41.326;2.104;2023-12-20T18:35:20;101886.50;;;13.16;44.94
61337;BME280;47212;41.326;2.104;2023-12-20T18:40:24;101891.38;;;13.14;44.68
61337;BME280;47212;41.326;2.104;2023-12-20T18:45:34;101892.97;;;13.10;45.12
61337;BME280;47212;41.326;2.104;2023-12-20T18:50:36;101891.31;;;13.09;44.67
61337;BME280;47212;41.326;2.104;2023-12-20T18:55:40;101895.63;;;13.05;44.68
61337;BME280;47212;41.326;2.104;2023-12-20T19:00:43;101913.34;;;13.02;44.77
61337;BME280;47212;41.326;2.104;2023-12-20T19:05:45;101926.91;;;12.97;44.44
61337;BME280;47212;41.326;2.104;2023-12-20T19:10:47;101932.06;;;12.94;44.73
61337;BME280;47212;41.326;2.104;2023-12-20T19:15:52;101930.41;;;12.93;44.29
61337;BME280;47212;41.326;2.104;2023-12-20T19:21:01;101945.13;;;12.92;44.57
61337;BME280;47212;41.326;2.104;2023-12-20T19:26:10;101953.59;;;12.90;44.43
61337;BME280;47212;41.326;2.104;2023-12-20T19:31:13;101949.44;;;12.88;44.01
61337;BME280;47212;41.326;2.104;2023-12-20T19:36:16;101939.84;;;12.85;43.73
61337;BME280;47212;41.326;2.104;2023-12-20T19:41:19;101942.25;;;12.82;43.84
61337;BME280;47212;41.326;2.104;2023-12-20T19:46:24;101956.41;;;12.79;44.30
61337;BME280;47212;41.326;2.104;2023-12-20T19:51:33;101968.91;;;12.74;43.81
61337;BME280;47212;41.326;2.104;2023-12-20T19:56:41;101967.50;;;12.72;43.59
61337;BME280;47212;41.326;2.104;2023-12-20T20:01:49;101959.19;;;12.67;43.32
61337;BME280;47212;41.326;2.104;2023-12-20T20:06:53;101960.03;;;12.67;44.30
61337;BME280;47212;41.326;2.104;2023-12-20T20:12:00;101962.66;;;12.62;43.87
61337;BME280;47212;41.326;2.104;2023-12-20T20:17:02;101985.84;;;12.60;43.54
61337;BME280;47212;41.326;2.104;2023-12-20T20:22:13;101971.84;;;12.56;43.64
61337;BME280;47212;41.326;2.104;2023-12-20T20:27:18;101963.31;;;12.53;43.02
61337;BME280;47212;41.326;2.104;2023-12-20T20:32:27;101981.03;;;12.50;43.43
61337;BME280;47212;41.326;2.104;2023-12-20T20:37:29;101980.69;;;12.47;43.62
61337;BME280;47212;41.326;2.104;2023-12-20T20:42:34;101998.06;;;12.40;43.71
61337;BME280;47212;41.326;2.104;2023-12-20T20:48:04;101997.72;;;12.37;43.50
61337;BME280;47212;41.326;2.104;2023-12-20T20:53:57;102011.75;;;12.29;43.50
61337;BME280;47212;41.326;2.104;2023-12-20T21:07:02;102015.84;;;12.15;43.56
61337;BME280;47212;41.326;2.104;2023-12-20T21:12:52;102024.97;;;12.08;43.80
61337;BME280;47212;41.326;2.104;2023-12-20T21:18:06;102014.19;;;12.02;43.68
61337;BME280;47212;41.326;2.104;2023-12-20T21:23:47;102001.97;;;11.93;44.36
61337;BME280;47212;41.326;2.104;2023-12-20T21:28:55;102020.13;;;11.87;44.69
61337;BME280;47212;41.326;2.104;2023-12-20T21:34:18;102022.59;;;11.77;44.81
61337;BME280;47212;41.326;2.104;2023-12-20T21:40:43;102037.44;;;11.58;45.52
61337;BME280;47212;41.326;2.104;2023-12-20T21:45:45;102052.84;;;11.40;45.55
61337;BME280;47212;41.326;2.104;2023-12-20T21:50:47;102049.50;;;11.27;45.51
61337;BME280;47212;41.326;2.104;2023-12-20T21:55:50;102035.97;;;11.20;45.97
61337;BME280;47212;41.326;2.104;2023-12-20T22:00:52;102025.53;;;11.17;44.77
61337;BME280;47212;41.326;2.104;2023-12-20T22:06:06;102026.13;;;11.19;45.46
61337;BME280;47212;41.326;2.104;2023-12-20T22:11:26;102037.03;;;11.19;44.98
61337;BME280;47212;41.326;2.104;2023-12-20T22:16:45;102048.28;;;11.11;45.56
61337;BME280;47212;41.326;2.104;2023-12-20T22:21:54;102050.16;;;10.99;45.51
61337;BME280;47212;41.326;2.104;2023-12-20T22:27:06;102055.47;;;10.94;45.75
61337;BME280;47212;41.326;2.104;2023-12-20T22:32:09;102053.22;;;10.91;45.31
61337;BME280;47212;41.326;2.104;2023-12-20T22:37:38;102031.88;;;10.88;45.74
61337;BME280;47212;41.326;2.104;2023-12-20T22:43:01;102043.25;;;10.84;46.13
61337;BME280;47212;41.326;2.104;2023-12-20T22:49:23;102024.19;;;10.84;45.43
61337;BME280;47212;41.326;2.104;2023-12-20T22:54:32;102040.38;;;10.79;45.55
61337;BME280;47212;41.326;2.104;2023-12-20T23:00:46;102075.19;;;10.77;45.98
61337;BME280;47212;41.326;2.104;2023-12-20T23:05:54;102060.75;;;10.77;45.93
61337;BME280;47212;41.326;2.104;2023-12-20T23:11:03;102056.59;;;10.74;45.85
61337;BME280;47212;41.326;2.104;2023-12-20T23:16:08;102047.00;;;10.72;45.69
61337;BME280;47212;41.326;2.104;2023-12-20T23:21:17;102052.31;;;10.67;45.63
61337;BME280;47212;41.326;2.104;2023-12-20T23:26:24;102052.78;;;10.64;45.68
61337;BME280;47212;41.326;2.104;2023-12-20T23:31:32;102052.41;;;10.60;45.92
61337;BME280;47212;41.326;2.104;2023-12-20T23:36:40;102033.34;;;10.60;45.70
61337;BME280;47212;41.326;2.104;2023-12-20T23:41:44;102033.34;;;10.60;45.50
61337;BME280;47212;41.326;2.104;2023-12-20T23:46:50;102045.28;;;10.59;45.67
61337;BME280;47212;41.326;2.104;2023-12-20T23:51:54;102045.38;;;10.52;45.95
61337;BME280;47212;41.326;2.104;2023-12-20T23:57:02;102038.38;;;10.45;45.76
